KEBS/EBS METAR and TAF weather

Enter ICAO airport designator
Station Type Date Time Source
KEBS METAR 2022/08/13 12:35 UTC NOAA

KEBS 131235Z AUTO 18006KT 10SM CLR 21/21 A2995 RMK AO2


Station Type Date Time Source
KEBS Decoded METAR 2022/08/13 12:35 UTC NOAA

Webster City, IA, United States (KEBS) 42-26N 093-52W
Aug 13, 2022 - 08:35 AM EDT / 2022.08.13 1235 UTC
Wind: from the S (180 degrees) at 7 MPH (6 KT):0
Visibility: 10 mile(s):0
Sky conditions: clear
Temperature: 69 F (21 C)
Dew Point: 69 F (21 C)
Relative Humidity: 100%
Pressure (altimeter): 29.95 in. Hg (1014 hPa)
ob: KEBS 131235Z AUTO 18006KT 10SM CLR 21/21 A2995 RMK AO2
cycle: 12

Station Type Date Time Source
KEBS TAF UTC NOAA

Error!

Example: see airport list